Time;durP1;ratioP1;P1;durP2;ratioP2;P2;SDS_P1;SDS_P2;PMS_P1;PMS_P2;Temp;Humidity;BMP_temperature;BMP_pressure;BME280_temperature;BME280_humidity;BME280_pressure;Samples;Min_cycle;Max_cycle;Signal;HPM_P1;HPM_P2
2023/10/11 00:00:51;;;;;;;0.10;0.10;;;14.20;70.00;;;;;;5050418;28;20412;-70
2023/10/11 00:03:32;;;;;;;;;;;14.20;69.30;;;;;;5053492;28;20041;-70
2023/10/11 00:06:00;;;;;;;1.10;0.75;;;14.20;70.00;;;;;;5051198;28;19920;-70
2023/10/11 00:08:26;;;;;;;0.80;0.60;;;14.10;69.80;;;;;;5034912;28;20060;-70
2023/10/11 00:11:11;;;;;;;;;;;14.10;69.90;;;;;;5034187;28;20041;-70
2023/10/11 00:13:37;;;;;;;0.93;0.57;;;14.10;69.80;;;;;;5034568;28;19921;-69
2023/10/11 00:16:22;;;;;;;1.05;0.68;;;14.00;69.80;;;;;;5051692;28;20040;-70
2023/10/11 00:18:51;;;;;;;0.63;0.30;;;14.00;70.10;;;;;;5052617;28;20033;-70
2023/10/11 00:21:17;;;;;;;1.27;0.55;;;13.90;69.30;;;;;;5034005;28;20037;-70
2023/10/11 00:24:02;;;;;;;0.30;0.30;;;14.00;70.00;;;;;;5052293;28;20073;-70
2023/10/11 00:26:28;;;;;;;1.05;0.75;;;14.00;70.10;;;;;;5050858;28;20025;-70
2023/10/11 00:28:54;;;;;;;0.85;0.63;;;14.00;70.00;;;;;;5052712;28;20067;-70
2023/10/11 00:31:20;;;;;;;0.22;0.22;;;13.90;70.20;;;;;;5033446;28;20037;-70
2023/10/11 00:33:47;;;;;;;0.30;0.30;;;13.90;70.00;;;;;;5052464;28;20041;-70
2023/10/11 00:36:24;;;;;;;0.75;0.55;;;13.80;69.60;;;;;;5050779;28;20468;-70
2023/10/11 00:38:51;;;;;;;0.47;0.47;;;13.80;69.90;;;;;;5035904;28;20041;-70
2023/10/11 00:41:18;;;;;;;1.48;0.40;;;13.70;70.00;;;;;;5033744;28;20494;-70
2023/10/11 00:43:55;;;;;;;0.47;0.30;;;13.70;69.90;;;;;;5052149;28;20037;-70
2023/10/11 00:46:26;;;;;;;0.82;0.57;;;13.60;69.50;;;;;;5034324;28;20032;-70
2023/10/11 00:49:00;;;;;;;0.85;0.80;;;13.60;69.70;;;;;;5052429;28;20386;-70
2023/10/11 00:51:49;;;;;;;0.82;0.35;;;13.60;69.20;;;;;;5034555;28;20040;-70
2023/10/11 00:54:16;;;;;;;1.00;0.40;;;13.60;69.60;;;;;;5034903;28;20071;-70
2023/10/11 00:56:44;;;;;;;0.32;0.30;;;13.50;69.90;;;;;;5050514;28;20029;-70
2023/10/11 00:59:14;;;;;;;1.38;0.88;;;13.50;70.10;;;;;;5034351;28;20043;-70
2023/10/11 01:04:38;;;;;;;0.65;0.60;;;13.50;69.90;;;;;;5037039;28;20076;-70
2023/10/11 01:07:08;;;;;;;0.35;0.35;;;13.50;70.20;;;;;;5035705;28;20084;-70
2023/10/11 01:09:37;;;;;;;0.88;0.63;;;13.50;70.30;;;;;;5034965;28;20123;-70
2023/10/11 01:12:03;;;;;;;0.98;0.50;;;13.50;70.40;;;;;;5032963;28;20030;-70
2023/10/11 01:14:36;;;;;;;;;;;13.40;70.10;;;;;;5052847;28;20044;-70
2023/10/11 01:17:02;;;;;;;0.20;0.20;;;13.40;70.40;;;;;;5033993;28;19917;-70
2023/10/11 01:19:28;;;;;;;0.43;0.40;;;13.30;70.40;;;;;;5050772;28;20033;-70
2023/10/11 01:21:59;;;;;;;0.60;0.40;;;13.20;69.80;;;;;;5032993;28;20498;-70
2023/10/11 01:24:25;;;;;;;0.30;0.20;;;13.10;69.60;;;;;;5052396;28;20081;-70
2023/10/11 01:26:51;;;;;;;;;;;13.10;69.90;;;;;;5052043;28;20082;-70
2023/10/11 01:29:17;;;;;;;0.45;0.40;;;13.10;70.00;;;;;;5036632;28;20425;-70
2023/10/11 01:31:43;;;;;;;0.20;0.20;;;13.00;70.00;;;;;;5036532;28;20040;-70
2023/10/11 01:36:55;;;;;;;0.68;0.50;;;13.00;69.70;;;;;;5055109;28;20037;-70
2023/10/11 01:39:21;;;;;;;0.68;0.50;;;12.90;69.70;;;;;;5037757;28;20109;-70
2023/10/11 01:41:47;;;;;;;1.83;0.47;;;12.90;69.70;;;;;;5054070;28;20029;-70
2023/10/11 01:44:13;;;;;;;0.77;0.32;;;12.90;69.40;;;;;;5055544;28;20074;-70
2023/10/11 01:46:39;;;;;;;3.13;1.65;;;12.80;69.60;;;;;;5054696;28;20033;-69
2023/10/11 01:49:06;;;;;;;1.90;1.05;;;12.80;69.90;;;;;;5037705;28;20461;-70
2023/10/11 01:51:38;;;;;;;1.75;1.27;;;12.80;70.00;;;;;;5053996;28;20060;-71
2023/10/11 01:54:06;;;;;;;0.75;0.40;;;12.80;69.70;;;;;;5038460;28;20072;-70
2023/10/11 01:56:33;;;;;;;1.02;0.73;;;12.80;69.40;;;;;;5037053;28;20443;-70
2023/10/11 01:59:01;;;;;;;0.82;0.47;;;12.80;69.70;;;;;;5020824;28;20029;-70
2023/10/11 02:01:30;;;;;;;1.05;0.65;;;12.70;69.90;;;;;;5036087;28;20040;-70
2023/10/11 02:07:00;;;;;;;0.80;0.52;;;12.50;69.80;;;;;;5054558;28;20076;-70
2023/10/11 02:09:26;;;;;;;2.83;0.65;;;12.50;70.00;;;;;;5020740;28;20536;-70
2023/10/11 02:11:52;;;;;;;0.47;0.40;;;12.50;69.70;;;;;;5053610;28;20045;-70
2023/10/11 02:14:38;;;;;;;0.68;0.45;;;12.50;69.90;;;;;;5055204;28;20362;-70
2023/10/11 02:17:05;;;;;;;1.67;0.75;;;12.50;70.10;;;;;;5054288;28;20041;-70
2023/10/11 02:19:32;;;;;;;1.38;0.75;;;12.50;70.10;;;;;;5037089;28;20398;-70
2023/10/11 02:22:00;;;;;;;1.10;0.52;;;12.50;70.20;;;;;;5053356;28;20048;-70
2023/10/11 02:24:26;;;;;;;0.80;0.40;;;12.50;70.10;;;;;;5036895;28;20048;-69
2023/10/11 02:26:54;;;;;;;1.05;0.30;;;12.40;70.40;;;;;;5054021;28;20033;-70
2023/10/11 02:29:21;;;;;;;2.75;1.35;;;12.40;70.50;;;;;;5053302;28;20052;-70
2023/10/11 02:32:08;;;;;;;0.52;0.30;;;12.40;70.70;;;;;;5035433;28;20494;-69
2023/10/11 02:34:35;;;;;;;1.60;0.70;;;12.50;70.90;;;;;;5036971;28;20075;-70
2023/10/11 02:37:04;;;;;;;0.20;0.20;;;12.50;70.90;;;;;;5053903;28;20508;-70
2023/10/11 02:39:42;;;;;;;0.98;0.70;;;12.40;71.00;;;;;;5054397;28;20604;-70
2023/10/11 02:42:09;;;;;;;0.55;0.35;;;12.50;71.00;;;;;;5053187;28;20449;-70
2023/10/11 02:47:22;;;;;;;1.58;0.73;;;12.40;70.80;;;;;;5053879;28;20075;-70
2023/10/11 02:49:51;;;;;;;1.15;0.65;;;12.40;70.80;;;;;;5054090;28;20033;-70
2023/10/11 02:52:18;;;;;;;0.63;0.43;;;12.40;70.90;;;;;;5035577;28;20037;-70
2023/10/11 02:54:46;;;;;;;0.98;0.70;;;12.40;71.10;;;;;;5053071;28;20425;-70
2023/10/11 02:57:18;;;;;;;0.98;0.55;;;12.40;71.00;;;;;;5053451;28;20083;-70
2023/10/11 02:59:50;;;;;;;0.57;0.40;;;12.40;71.00;;;;;;5037227;28;20071;-70
2023/10/11 03:02:16;;;;;;;0.65;0.40;;;12.40;71.30;;;;;;5052796;28;20450;-70
2023/10/11 03:04:42;;;;;;;0.50;0.50;;;12.40;71.00;;;;;;5054058;28;20035;-70
2023/10/11 03:07:15;;;;;;;;;;;12.40;71.20;;;;;;5053939;28;20037;-70
2023/10/11 03:09:41;;;;;;;1.15;0.45;;;12.40;70.90;;;;;;5054166;28;19928;-70
2023/10/11 03:12:24;;;;;;;;;;;12.40;70.70;;;;;;5035295;28;20057;-70
2023/10/11 03:14:54;;;;;;;0.95;0.32;;;12.30;70.80;;;;;;5052755;28;19928;-70
2023/10/11 03:17:21;;;;;;;1.95;0.45;;;12.30;71.00;;;;;;5035458;28;20079;-70
2023/10/11 03:22:35;;;;;;;0.35;0.30;;;12.20;70.50;;;;;;5052955;28;20047;-70
2023/10/11 03:25:12;;;;;;;1.15;0.60;;;12.20;71.20;;;;;;5053972;28;20044;-70
2023/10/11 03:27:46;;;;;;;0.88;0.65;;;12.20;71.60;;;;;;5053385;28;20123;-70
2023/10/11 03:30:15;;;;;;;1.02;0.60;;;12.20;71.70;;;;;;5050855;28;20052;-70
2023/10/11 03:32:44;;;;;;;1.35;1.00;;;12.30;71.40;;;;;;5053142;28;20029;-70
2023/10/11 03:35:15;;;;;;;0.40;0.40;;;12.20;71.00;;;;;;5035153;28;20064;-70
2023/10/11 03:37:57;;;;;;;0.98;0.32;;;12.10;70.70;;;;;;5035243;28;20517;-70
2023/10/11 03:45:59;;;;;;;0.93;0.88;;;12.00;70.70;;;;;;5052495;28;20068;-70
2023/10/11 03:48:28;;;;;;;3.83;0.93;;;12.00;70.80;;;;;;5052006;28;20037;-70
2023/10/11 03:50:56;;;;;;;0.32;0.32;;;12.00;70.80;;;;;;5049867;28;20037;-70
2023/10/11 03:53:22;;;;;;;0.80;0.38;;;12.00;70.70;;;;;;5035040;28;20033;-70
2023/10/11 03:55:49;;;;;;;0.65;0.40;;;12.00;70.50;;;;;;5052367;28;20033;-70
2023/10/11 04:03:43;;;;;;;1.33;0.65;;;11.80;69.80;;;;;;5051492;28;20036;-70
2023/10/11 04:09:02;;;;;;;0.90;0.80;;;11.70;69.60;;;;;;5038809;28;20071;-70
2023/10/11 04:14:24;;;;;;;0.28;0.28;;;11.70;70.10;;;;;;5052488;28;20116;-70
2023/10/11 04:16:56;;;;;;;0.50;0.30;;;11.60;70.10;;;;;;5050950;28;20064;-70
2023/10/11 04:19:22;;;;;;;0.22;0.20;;;11.60;70.10;;;;;;5051483;28;20084;-70
2023/10/11 04:24:19;;;;;;;1.00;0.55;;;11.50;69.30;;;;;;5052763;28;20080;-70
2023/10/11 04:29:38;;;;;;;1.10;0.57;;;11.50;70.20;;;;;;5052790;28;20049;-70
2023/10/11 04:32:09;;;;;;;0.20;0.20;;;11.50;70.30;;;;;;5050991;28;20060;-70
2023/10/11 04:34:38;;;;;;;3.65;0.70;;;11.60;70.00;;;;;;5035217;28;20041;-70
2023/10/11 04:37:07;;;;;;;0.45;0.45;;;11.50;69.50;;;;;;5034551;28;20258;-70
2023/10/11 04:39:34;;;;;;;1.60;1.08;;;11.40;69.90;;;;;;5034888;28;20156;-70
2023/10/11 04:42:02;;;;;;;1.27;0.95;;;11.30;70.10;;;;;;5033326;28;20030;-70
2023/10/11 04:44:31;;;;;;;1.80;1.20;;;11.20;70.80;;;;;;5034113;28;20072;-70
2023/10/11 04:46:58;;;;;;;1.48;1.08;;;11.20;70.70;;;;;;5034053;28;20531;-70
2023/10/11 04:49:25;;;;;;;1.33;0.80;;;11.20;71.30;;;;;;5052556;28;20496;-70
2023/10/11 04:54:43;;;;;;;1.95;0.73;;;11.30;71.50;;;;;;5051273;28;20099;-70
2023/10/11 04:57:17;;;;;;;2.88;1.00;;;11.30;71.30;;;;;;5034683;28;20037;-70
2023/10/11 04:59:46;;;;;;;3.05;1.67;;;11.30;71.50;;;;;;5051635;28;20052;-70
2023/10/11 05:02:28;;;;;;;1.35;0.73;;;11.40;71.50;;;;;;5034491;28;20706;-70
2023/10/11 05:04:54;;;;;;;0.73;0.52;;;11.40;71.50;;;;;;5055890;28;20140;-70
2023/10/11 05:07:21;;;;;;;0.70;0.25;;;11.50;71.50;;;;;;5037833;28;20277;-70
2023/10/11 05:09:56;;;;;;;1.65;0.80;;;11.50;71.70;;;;;;5056352;28;20478;-70
2023/10/11 05:12:23;;;;;;;1.08;0.73;;;11.50;71.70;;;;;;5054775;28;20072;-70
2023/10/11 05:19:46;;;;;;;1.15;0.75;;;11.60;72.10;;;;;;5056005;28;20079;-70
2023/10/11 05:28:43;;;;;;;2.65;0.85;;;11.60;72.10;;;;;;5055667;28;20469;-70
2023/10/11 05:36:48;;;;;;;0.35;0.35;;;11.60;72.20;;;;;;5039929;28;20043;-70
2023/10/11 05:52:57;;;;;;;0.82;0.68;;;11.80;72.60;;;;;;5040161;28;20087;-70
2023/10/11 05:55:24;;;;;;;1.13;0.95;;;11.90;72.60;;;;;;5054689;28;20037;-69
2023/10/11 05:57:53;;;;;;;;;;;11.90;72.70;;;;;;5037658;28;20095;-70
2023/10/11 06:00:26;;;;;;;2.90;1.00;;;11.90;72.40;;;;;;5053746;28;19914;-70
2023/10/11 06:02:53;;;;;;;0.63;0.50;;;11.90;72.70;;;;;;5038153;28;20082;-70
2023/10/11 06:05:23;;;;;;;2.42;1.23;;;12.00;72.70;;;;;;5054338;28;20494;-70
2023/10/11 06:08:15;;;;;;;0.85;0.65;;;12.00;72.60;;;;;;5037762;28;20032;-70
2023/10/11 06:10:41;;;;;;;0.35;0.35;;;12.10;72.90;;;;;;5036890;28;20041;-70
2023/10/11 06:13:26;;;;;;;0.88;0.60;;;12.10;72.00;;;;;;5054782;28;20041;-70
2023/10/11 06:16:02;;;;;;;1.33;0.65;;;12.20;72.60;;;;;;5036120;28;20029;-70
2023/10/11 06:18:39;;;;;;;1.45;0.98;;;12.20;72.50;;;;;;5054760;28;20508;-70
2023/10/11 06:21:30;;;;;;;0.85;0.75;;;12.20;72.40;;;;;;5037110;28;20037;-70
2023/10/11 06:23:58;;;;;;;0.35;0.25;;;12.30;72.50;;;;;;5054801;28;20056;-70
2023/10/11 06:29:08;;;;;;;0.65;0.50;;;12.40;72.60;;;;;;5038707;28;20435;-70
2023/10/11 06:31:43;;;;;;;0.47;0.45;;;12.50;72.60;;;;;;5052960;28;20195;-70
2023/10/11 06:34:23;;;;;;;1.85;1.10;;;12.50;72.50;;;;;;5054633;28;20036;-70
2023/10/11 06:36:51;;;;;;;1.23;0.63;;;12.70;72.30;;;;;;5037954;28;20033;-70
2023/10/11 06:42:12;;;;;;;2.03;1.00;;;12.90;72.10;;;;;;5053466;28;20537;-69
2023/10/11 06:45:02;;;;;;;1.45;0.82;;;13.10;71.70;;;;;;5053141;28;20041;-70
2023/10/11 06:50:14;;;;;;;0.60;0.40;;;13.20;71.60;;;;;;5053203;28;20080;-70
2023/10/11 06:52:43;;;;;;;2.42;1.40;;;13.30;71.50;;;;;;5053776;28;20036;-70
2023/10/11 06:55:30;;;;;;;0.90;0.40;;;13.40;71.40;;;;;;5035733;28;20043;-70
2023/10/11 06:57:56;;;;;;;2.28;1.05;;;13.40;71.30;;;;;;5053992;28;20424;-70
2023/10/11 07:00:27;;;;;;;1.33;0.88;;;13.60;71.30;;;;;;5034910;28;20663;-70
2023/10/11 07:05:49;;;;;;;0.93;0.85;;;13.70;70.70;;;;;;5053273;28;20513;-70
2023/10/11 07:08:17;;;;;;;1.77;0.70;;;13.90;70.50;;;;;;5035926;28;20367;-70
2023/10/11 07:16:20;;;;;;;2.25;1.20;;;14.30;69.60;;;;;;5037913;28;20147;-70
2023/10/11 07:19:06;;;;;;;0.88;0.82;;;14.30;69.20;;;;;;5035643;28;20045;-70
2023/10/11 07:24:30;;;;;;;0.60;0.50;;;14.60;69.70;;;;;;5053755;28;20049;-70
2023/10/11 07:27:26;;;;;;;2.35;1.50;;;14.70;69.40;;;;;;5050859;28;20040;-70
2023/10/11 07:29:54;;;;;;;1.20;0.95;;;15.00;69.30;;;;;;5052320;28;20041;-70
2023/10/11 07:32:21;;;;;;;0.38;0.38;;;15.30;68.70;;;;;;5033020;28;20126;-70
2023/10/11 07:34:48;;;;;;;0.95;0.70;;;15.40;67.40;;;;;;5035361;28;20037;-70
2023/10/11 07:37:19;;;;;;;0.75;0.75;;;15.50;68.20;;;;;;5052537;28;20032;-70
2023/10/11 07:39:47;;;;;;;0.90;0.70;;;15.60;67.80;;;;;;5053548;28;20116;-70
2023/10/11 07:42:19;;;;;;;0.65;0.40;;;15.80;67.60;;;;;;5051868;28;20045;-70
2023/10/11 07:44:50;;;;;;;0.30;0.30;;;15.90;67.40;;;;;;5053350;28;20120;-70
2023/10/11 07:47:16;;;;;;;1.05;0.50;;;16.20;67.00;;;;;;5051568;28;20496;-70
2023/10/11 07:49:43;;;;;;;0.55;0.30;;;16.40;66.10;;;;;;5035483;28;20069;-70
2023/10/11 07:52:10;;;;;;;0.35;0.32;;;16.60;65.60;;;;;;5034055;28;20037;-70
2023/10/11 07:57:22;;;;;;;0.63;0.40;;;17.50;63.70;;;;;;5052498;28;20527;-70
2023/10/11 07:59:51;;;;;;;2.03;1.38;;;18.70;60.70;;;;;;5035274;28;20033;-70
2023/10/11 08:02:31;;;;;;;1.25;0.82;;;19.40;57.90;;;;;;5034591;28;20041;-70
2023/10/11 08:04:58;;;;;;;1.08;1.00;;;19.70;57.30;;;;;;5034952;28;20041;-70
2023/10/11 08:07:24;;;;;;;1.23;0.70;;;20.40;56.20;;;;;;5034563;28;20087;-70
2023/10/11 08:12:38;;;;;;;0.85;0.47;;;23.10;50.60;;;;;;5035316;28;20175;-70
2023/10/11 08:15:06;;;;;;;0.38;0.30;;;24.30;47.30;;;;;;5052142;28;20455;-70
2023/10/11 08:17:32;;;;;;;0.70;0.55;;;25.00;44.20;;;;;;5018209;28;20029;-70
2023/10/11 08:19:59;;;;;;;;;;;25.90;43.00;;;;;;5053378;28;20049;-70
2023/10/11 08:22:27;;;;;;;;;;;26.70;40.30;;;;;;5017627;28;20290;-71
2023/10/11 08:24:56;;;;;;;1.25;0.60;;;27.50;39.20;;;;;;5018343;28;20019;-70
2023/10/11 08:30:09;;;;;;;0.88;0.88;;;28.80;36.00;;;;;;5036276;28;20079;-71
2023/10/11 08:32:38;;;;;;;0.90;0.90;;;29.50;32.90;;;;;;5034516;28;20071;-70
2023/10/11 08:35:31;;;;;;;0.88;0.73;;;29.90;31.80;;;;;;5052187;28;20116;-70
2023/10/11 08:38:18;;;;;;;1.77;0.40;;;30.50;32.10;;;;;;5054674;28;20029;-70
2023/10/11 08:40:49;;;;;;;1.08;0.98;;;30.90;31.10;;;;;;5055254;28;20033;-70
2023/10/11 08:43:16;;;;;;;1.73;0.85;;;31.50;30.10;;;;;;5039217;28;20041;-70
2023/10/11 08:46:05;;;;;;;2.40;1.90;;;32.10;29.40;;;;;;5037990;28;20099;-70
2023/10/11 08:48:38;;;;;;;0.40;0.30;;;32.70;27.60;;;;;;5022523;28;20043;-70
2023/10/11 08:51:11;;;;;;;0.88;0.35;;;33.20;27.40;;;;;;5038468;28;20041;-70
2023/10/11 08:53:45;;;;;;;1.10;0.65;;;33.70;26.60;;;;;;5056481;28;20059;-70
2023/10/11 08:56:14;;;;;;;0.45;0.40;;;34.10;26.20;;;;;;5055928;28;20405;-71
2023/10/11 08:58:41;;;;;;;4.28;2.35;;;34.60;25.50;;;;;;5055962;28;20135;-70
2023/10/11 09:01:07;;;;;;;1.20;0.60;;;35.00;24.90;;;;;;5054836;28;20043;-70
2023/10/11 09:03:40;;;;;;;0.52;0.40;;;35.30;24.50;;;;;;5056210;28;20061;-70
2023/10/11 09:06:36;;;;;;;0.57;0.40;;;35.60;24.20;;;;;;5055676;28;20036;-70
2023/10/11 09:09:03;;;;;;;0.95;0.88;;;35.70;23.10;;;;;;5055943;28;20108;-70
2023/10/11 09:11:29;;;;;;;0.73;0.50;;;36.10;21.80;;;;;;5036998;28;20049;-70
2023/10/11 09:14:22;;;;;;;0.47;0.43;;;34.90;23.90;;;;;;5038182;28;20424;-70
2023/10/11 09:17:18;;;;;;;1.05;0.95;;;32.70;25.80;;;;;;5038707;28;20123;-70
2023/10/11 09:20:14;;;;;;;0.68;0.50;;;31.30;28.20;;;;;;5038025;28;20060;-70
2023/10/11 09:23:01;;;;;;;0.82;0.60;;;30.70;28.80;;;;;;5055187;28;20077;-70
2023/10/11 09:25:33;;;;;;;0.40;0.40;;;29.90;29.70;;;;;;5055167;28;20036;-70
2023/10/11 09:27:59;;;;;;;0.85;0.75;;;29.50;30.40;;;;;;5038723;28;20462;-70
2023/10/11 09:30:27;;;;;;;10.25;0.73;;;28.80;31.60;;;;;;5036562;28;20119;-70
2023/10/11 09:32:59;;;;;;;1.98;0.70;;;28.20;32.70;;;;;;5055367;28;20104;-70
2023/10/11 09:35:28;;;;;;;1.20;0.82;;;27.80;33.00;;;;;;5037848;28;20036;-70
2023/10/11 09:38:13;;;;;;;0.38;0.38;;;27.50;33.70;;;;;;5037735;28;20613;-70
2023/10/11 09:40:40;;;;;;;0.65;0.47;;;27.00;35.10;;;;;;5054164;28;20123;-70
2023/10/11 09:43:06;;;;;;;2.17;0.98;;;26.60;36.30;;;;;;5037629;28;20029;-70
2023/10/11 09:48:19;;;;;;;0.35;0.35;;;26.00;37.20;;;;;;5054949;28;20053;-70
2023/10/11 09:50:46;;;;;;;0.30;0.30;;;25.80;37.80;;;;;;5019515;28;20622;-70
2023/10/11 09:53:13;;;;;;;4.63;0.93;;;25.60;38.30;;;;;;5037511;28;20061;-70
2023/10/11 09:56:05;;;;;;;1.02;0.82;;;25.40;38.80;;;;;;5036812;28;20478;-70
2023/10/11 09:58:57;;;;;;;0.77;0.65;;;25.10;39.10;;;;;;5037280;28;20041;-70
2023/10/11 10:02:19;;;;;;;0.52;0.52;;;25.10;39.40;;;;;;5053811;28;20128;-70
2023/10/11 10:04:51;;;;;;;1.70;1.08;;;25.20;39.80;;;;;;5055270;28;20029;-70
2023/10/11 10:07:45;;;;;;;1.17;1.00;;;25.00;40.50;;;;;;5054843;28;20448;-70
2023/10/11 10:10:15;;;;;;;1.08;0.70;;;24.80;40.80;;;;;;5053931;28;20037;-70
2023/10/11 10:13:06;;;;;;;0.55;0.40;;;24.70;41.60;;;;;;5054471;28;20112;-70
2023/10/11 10:15:49;;;;;;;2.35;1.25;;;24.60;41.70;;;;;;5036461;28;20037;-70
2023/10/11 10:18:22;;;;;;;0.70;0.70;;;24.50;42.20;;;;;;5037218;28;20041;-70
2023/10/11 10:23:43;;;;;;;2.33;1.45;;;24.30;43.50;;;;;;5039569;28;20078;-70
2023/10/11 10:28:57;;;;;;;0.40;0.32;;;24.40;43.10;;;;;;5054493;28;19928;-70
2023/10/11 10:31:24;;;;;;;3.75;2.33;;;24.70;43.00;;;;;;5052767;28;20430;-70
2023/10/11 10:34:13;;;;;;;1.20;0.88;;;24.70;42.90;;;;;;5036845;28;20047;-70
2023/10/11 10:36:40;;;;;;;0.45;0.30;;;24.50;43.10;;;;;;5035946;28;20099;-70
2023/10/11 10:41:38;;;;;;;1.60;0.95;;;24.50;44.00;;;;;;5035324;28;20559;-69
2023/10/11 10:44:23;;;;;;;1.50;1.20;;;24.50;44.00;;;;;;5054485;28;20033;-70
2023/10/11 10:47:09;;;;;;;3.13;1.23;;;24.40;44.00;;;;;;5035983;28;20033;-70
2023/10/11 10:49:55;;;;;;;1.25;1.13;;;24.30;44.30;;;;;;5054580;28;20446;-70
2023/10/11 10:52:30;;;;;;;4.90;3.80;;;24.30;44.80;;;;;;5034761;28;20090;-70
2023/10/11 10:55:15;;;;;;;38.78;15.40;;;24.40;44.80;;;;;;5037209;28;20041;-70
2023/10/11 10:57:41;;;;;;;25.30;15.23;;;24.50;45.30;;;;;;5053967;28;20067;-70
2023/10/11 11:03:02;;;;;;;18.83;13.15;;;24.50;44.20;;;;;;5039905;28;20040;-70
2023/10/11 11:05:39;;;;;;;8.27;4.47;;;24.60;43.90;;;;;;5053263;28;20037;-70
2023/10/11 11:08:15;;;;;;;7.38;2.75;;;24.70;44.90;;;;;;5053957;28;20116;-70
2023/10/11 11:10:54;;;;;;;10.90;4.13;;;24.70;44.20;;;;;;5035570;28;20434;-70
2023/10/11 11:13:22;;;;;;;0.93;0.50;;;24.80;44.60;;;;;;5037451;28;20127;-70
2023/10/11 11:15:55;;;;;;;1.52;0.85;;;24.80;44.30;;;;;;5035369;28;20058;-70
2023/10/11 11:18:34;;;;;;;5.75;3.85;;;24.80;44.10;;;;;;5053773;28;20520;-70
2023/10/11 11:21:23;;;;;;;7.82;4.97;;;24.90;44.20;;;;;;5052466;28;20040;-70
2023/10/11 11:23:50;;;;;;;2.72;1.33;;;25.00;44.20;;;;;;5053632;28;20371;-70
2023/10/11 11:26:39;;;;;;;2.25;1.38;;;25.10;43.90;;;;;;5035294;28;20036;-70
2023/10/11 11:29:16;;;;;;;1.25;0.68;;;25.30;43.70;;;;;;5053805;28;20040;-70
2023/10/11 11:31:53;;;;;;;1.05;0.75;;;25.40;44.00;;;;;;5052182;28;20120;-70
2023/10/11 11:34:37;;;;;;;5.80;3.97;;;26.40;42.10;;;;;;5035613;28;20107;-69
2023/10/11 11:37:06;;;;;;;1.45;0.60;;;26.70;39.80;;;;;;5037644;28;20040;-70
2023/10/11 11:44:55;;;;;;;4.18;1.40;;;26.00;42.10;;;;;;5053390;28;20128;-70
2023/10/11 11:47:21;;;;;;;0.88;0.40;;;25.90;42.00;;;;;;5034796;28;20029;-70
2023/10/11 11:49:47;;;;;;;0.25;0.25;;;25.80;41.80;;;;;;5053529;28;20044;-70
2023/10/11 11:52:17;;;;;;;8.77;1.30;;;25.80;41.50;;;;;;5051921;28;20055;-70
2023/10/11 11:54:44;;;;;;;2.58;1.20;;;25.80;42.10;;;;;;5053328;28;20359;-70
2023/10/11 11:57:10;;;;;;;3.75;2.05;;;25.80;42.70;;;;;;5034787;28;20428;-70
2023/10/11 11:59:38;;;;;;;9.50;2.95;;;26.00;43.10;;;;;;5034563;28;20110;-70
2023/10/11 12:02:09;;;;;;;11.10;2.42;;;26.20;42.60;;;;;;5034360;28;20037;-70
2023/10/11 12:04:36;;;;;;;41.25;24.45;;;27.50;39.90;;;;;;5019387;28;20052;-70
2023/10/11 12:07:07;;;;;;;4.03;2.85;;;27.80;38.30;;;;;;5034787;28;20067;-70
2023/10/11 12:09:35;;;;;;;2.67;2.00;;;27.90;37.70;;;;;;5035682;28;20075;-70
2023/10/11 12:12:20;;;;;;;2.28;1.15;;;27.90;37.70;;;;;;5016572;28;20033;-70
2023/10/11 12:14:47;;;;;;;1.48;1.30;;;27.50;38.70;;;;;;5034874;28;20119;-70
2023/10/11 12:17:14;;;;;;;1.27;0.88;;;27.20;39.80;;;;;;5052186;28;20036;-70
2023/10/11 12:19:41;;;;;;;8.73;4.15;;;27.00;39.90;;;;;;5018416;28;20044;-70
2023/10/11 12:22:26;;;;;;;1.08;0.88;;;27.00;40.40;;;;;;5033766;28;20107;-70
2023/10/11 12:24:58;;;;;;;4.35;1.65;;;27.10;40.20;;;;;;5052941;28;20063;-70
2023/10/11 12:27:24;;;;;;;0.68;0.60;;;27.00;40.50;;;;;;5051946;28;20541;-70
2023/10/11 12:29:50;;;;;;;4.90;2.05;;;26.90;39.60;;;;;;5034812;28;20048;-70
2023/10/11 12:32:17;;;;;;;1.17;0.73;;;26.80;39.90;;;;;;5051312;28;20033;-70
2023/10/11 12:34:43;;;;;;;1.13;0.65;;;26.80;40.30;;;;;;5052631;28;20090;-70
2023/10/11 12:37:14;;;;;;;4.93;1.60;;;26.80;40.30;;;;;;5052029;28;20025;-70
2023/10/11 12:39:40;;;;;;;5.35;2.78;;;27.30;39.80;;;;;;5052585;28;20047;-70
2023/10/11 12:42:09;;;;;;;3.42;1.85;;;27.70;38.30;;;;;;5051283;28;20033;-70
2023/10/11 12:44:40;;;;;;;1.27;0.85;;;27.80;38.20;;;;;;5052676;28;20041;-70
2023/10/11 12:47:10;;;;;;;2.70;1.65;;;27.60;38.60;;;;;;5034573;28;20079;-70
2023/10/11 12:49:36;;;;;;;0.73;0.68;;;27.60;38.80;;;;;;5035103;28;20119;-70
2023/10/11 12:52:05;;;;;;;1.65;1.23;;;28.90;36.50;;;;;;5033328;28;20048;-70
2023/10/11 12:54:32;;;;;;;1.17;0.63;;;31.00;33.50;;;;;;5052615;28;20453;-70
2023/10/11 12:56:59;;;;;;;1.45;1.05;;;32.90;30.00;;;;;;5033729;28;20029;-70
2023/10/11 12:59:25;;;;;;;0.43;0.40;;;34.70;27.10;;;;;;5052459;28;20124;-70
2023/10/11 13:04:41;;;;;;;4.05;2.30;;;37.60;23.90;;;;;;5052441;28;20445;-70
2023/10/11 13:07:13;;;;;;;0.85;0.65;;;38.70;22.60;;;;;;5051805;28;20033;-70
2023/10/11 13:09:40;;;;;;;0.63;0.52;;;39.60;21.50;;;;;;5052467;28;20244;-70
2023/10/11 13:12:08;;;;;;;1.75;0.98;;;40.20;21.10;;;;;;5016841;28;20494;-70
2023/10/11 13:14:35;;;;;;;0.88;0.40;;;40.80;20.10;;;;;;5034656;28;20039;-70
2023/10/11 13:17:06;;;;;;;1.73;0.90;;;41.40;19.80;;;;;;5033942;28;20036;-70
2023/10/11 13:19:32;;;;;;;1.67;0.88;;;41.70;18.90;;;;;;5018584;28;20387;-70
2023/10/11 13:21:58;;;;;;;2.55;2.05;;;42.00;18.80;;;;;;5033043;28;20579;-70
2023/10/11 13:24:27;;;;;;;1.63;1.52;;;41.50;18.90;;;;;;5037230;28;20456;-71
2023/10/11 13:26:56;;;;;;;3.10;1.85;;;39.40;20.60;;;;;;5055233;28;20059;-70
2023/10/11 13:29:23;;;;;;;2.70;1.50;;;38.00;22.50;;;;;;5021423;28;20068;-71
2023/10/11 13:34:37;;;;;;;3.53;2.97;;;39.90;20.30;;;;;;5040356;28;20532;-71
2023/10/11 13:37:03;;;;;;;1.95;1.38;;;41.40;19.40;;;;;;5055147;28;20037;-71
2023/10/11 13:39:39;;;;;;;0.95;0.70;;;42.40;18.30;;;;;;5021307;28;20041;-71
2023/10/11 13:42:09;;;;;;;2.05;1.08;;;43.10;18.50;;;;;;5037835;28;20091;-70
2023/10/11 13:44:39;;;;;;;0.75;0.65;;;44.00;17.90;;;;;;5038079;28;20043;-70
2023/10/11 13:47:05;;;;;;;1.30;1.08;;;44.30;16.60;;;;;;5054858;28;20067;-71
2023/10/11 13:49:37;;;;;;;0.80;0.68;;;44.40;17.00;;;;;;5055159;28;20524;-70
2023/10/11 13:52:04;;;;;;;4.90;4.40;;;44.80;16.90;;;;;;5054492;28;20118;-70
2023/10/11 13:54:42;;;;;;;1.85;1.10;;;44.80;16.00;;;;;;5037470;28;20071;-71
2023/10/11 13:57:10;;;;;;;0.75;0.75;;;44.90;16.00;;;;;;5021845;28;20033;-71
2023/10/11 13:59:55;;;;;;;1.88;1.73;;;44.90;15.70;;;;;;5055371;28;20065;-70
2023/10/11 14:02:38;;;;;;;1.33;1.23;;;44.90;15.40;;;;;;5053995;28;20045;-70
2023/10/11 14:07:36;;;;;;;1.13;0.80;;;43.90;15.80;;;;;;5037114;28;20028;-71
2023/10/11 14:10:15;;;;;;;1.13;0.80;;;43.40;16.60;;;;;;5054279;28;20045;-71
2023/10/11 14:12:42;;;;;;;0.88;0.75;;;43.70;17.20;;;;;;5038403;28;20029;-70
2023/10/11 14:15:17;;;;;;;2.50;1.88;;;43.80;16.30;;;;;;5036338;28;20087;-71
2023/10/11 14:18:03;;;;;;;4.88;2.25;;;43.80;16.50;;;;;;5054804;28;20064;-71
2023/10/11 14:23:15;;;;;;;2.88;2.13;;;43.70;16.30;;;;;;5054676;28;20093;-70
2023/10/11 14:25:43;;;;;;;4.43;1.85;;;43.60;16.70;;;;;;5019905;28;20033;-70
2023/10/11 14:28:14;;;;;;;4.85;1.15;;;43.50;16.80;;;;;;5036927;28;20466;-70
2023/10/11 14:30:40;;;;;;;8.60;5.05;;;43.50;17.00;;;;;;5052965;28;20079;-71
2023/10/11 14:33:08;;;;;;;2.47;1.92;;;43.50;17.00;;;;;;5054252;28;20037;-71
2023/10/11 14:35:38;;;;;;;2.58;1.40;;;43.30;17.30;;;;;;5053274;28;20363;-70
2023/10/11 14:38:05;;;;;;;3.17;1.27;;;43.00;17.70;;;;;;5054377;28;20494;-70
2023/10/11 14:40:31;;;;;;;3.10;2.53;;;42.80;17.60;;;;;;5035596;28;20402;-71
2023/10/11 14:42:57;;;;;;;1.70;0.90;;;43.00;17.80;;;;;;5054299;28;20393;-70
2023/10/11 14:45:23;;;;;;;2.22;1.83;;;42.80;17.50;;;;;;5053603;28;20071;-71
2023/10/11 14:47:50;;;;;;;0.80;0.80;;;42.40;18.10;;;;;;5036241;28;20112;-71
2023/10/11 14:50:23;;;;;;;1.67;1.48;;;42.20;18.30;;;;;;5053065;28;20068;-71
2023/10/11 14:52:50;;;;;;;1.20;0.93;;;41.80;18.20;;;;;;5037049;28;20064;-70
2023/10/11 14:55:16;;;;;;;2.03;1.52;;;41.80;18.30;;;;;;5035729;28;20040;-70
2023/10/11 14:58:01;;;;;;;1.63;0.98;;;41.40;18.40;;;;;;5036224;28;20090;-71
2023/10/11 15:00:33;;;;;;;1.50;1.40;;;41.20;19.20;;;;;;5034979;28;20033;-70
2023/10/11 15:03:00;;;;;;;0.85;0.60;;;40.80;19.30;;;;;;5053870;28;20514;-70
2023/10/11 15:05:46;;;;;;;1.25;0.90;;;39.80;20.00;;;;;;5035451;28;20508;-71
2023/10/11 15:08:15;;;;;;;1.20;1.05;;;39.40;20.90;;;;;;5052478;28;20068;-70
2023/10/11 15:10:45;;;;;;;4.20;2.72;;;39.40;21.30;;;;;;5035390;28;20080;-70
2023/10/11 15:13:11;;;;;;;4.88;2.90;;;39.20;21.10;;;;;;5053775;28;20477;-70
2023/10/11 15:15:37;;;;;;;1.75;1.08;;;38.30;22.30;;;;;;5053078;28;20109;-70
2023/10/11 15:18:04;;;;;;;4.32;2.40;;;36.70;23.50;;;;;;5053564;28;20123;-70